Federal Sable — V7WS4 — position and weather

sailwx.info

Track history (hours):
 
Tides and Currents Weather Stations Pressure Air Temp Water Temp Dewpoint Dewpoint Depression Visibility Wind Speed Wind Dir Waves Ship Positions

Federal Sable

Last reported at 2015-Jul-07 05:20 UTC. Time now 2015-Aug-30 05:53 UTC.
Position N 27°37' W 015°16'.
Warning: this ship's position is 54 days out of date.

Length 190 m; draft 10.4 m.

Type: Cargo ship. MMSI: 538004380.

Date/timePositionNaut miles runAvg speedWind from/ knotsBaromVisibWave heightAir tempDewpointWater temp
2015-Jul-07 05:20N 27°37' W 015°16'1012.9
2015-Jul-07 04:33N 27°46' W 015°11'1313.0
2015-Jul-07 03:33N 27°58' W 015°05'1313.0
2015-Jul-07 02:33N 28°10' W 014°60'1313.1
2015-Jul-07 01:33N 28°22' W 014°55'1313.1
2015-Jul-07 00:32N 28°35' W 014°50'1313.1
2015-Jul-06 23:33N 28°48' W 014°46'1413.0
2015-Jul-06 22:28N 29°01' W 014°42'1313.3
2015-Jul-06 21:31N 29°13' W 014°38'1212.9
2015-Jul-06 20:33N 29°26' W 014°35'1312.8
2015-Jul-06 19:33N 29°38' W 014°32'6412.7
2015-Jul-06 14:33N 30°39' W 014°12'1212.4
2015-Jul-06 13:33N 30°51' W 014°08'1212.4
2015-Jul-06 12:33N 31°03' W 014°04'1312.4
2015-Jul-06 11:33N 31°15' W 013°60'1212.6
2015-Jul-06 10:33N 31°27' W 013°56'1312.6
2015-Jul-06 09:33N 31°39' W 013°52'1212.4
2015-Jul-06 08:33N 31°51' W 013°48'1312.6
2015-Jul-06 07:33N 32°03' W 013°44'1212.3
2015-Jul-06 06:33N 32°15' W 013°41'1212.5
2015-Jul-06 05:33N 32°28' W 013°38'1312.6
2015-Jul-06 04:33N 32°40' W 013°34'1312.7
2015-Jul-06 03:33N 32°52' W 013°30'1312.8
2015-Jul-06 02:33N 33°04' W 013°26'1312.7
2015-Jul-06 01:33N 33°17' W 013°22'1313.0
2015-Jul-06 00:33N 33°29' W 013°17'1313.2
2015-Jul-05 23:33N 33°42' W 013°13'1313.2
2015-Jul-05 22:33N 33°55' W 013°09'1312.8
2015-Jul-05 21:33N 34°07' W 013°05'1312.7
2015-Jul-05 20:33N 34°19' W 013°00'1312.6
2015-Jul-05 19:33N 34°31' W 012°57'1312.6
2015-Jul-05 18:33N 34°43' W 012°53'1312.6
2015-Jul-05 17:33N 34°55' W 012°48'1512.9
2015-Jul-05 16:23N 35°10' W 012°44'2312.8
2015-Jul-05 14:33N 35°33' W 012°37'1512.7
2015-Jul-05 13:24N 35°47' W 012°32'1112.6
2015-Jul-05 12:31N 35°58' W 012°28'1313.0
2015-Jul-05 11:31N 36°10' W 012°24'1313.2
2015-Jul-05 10:33N 36°22' W 012°20'1413.2
2015-Jul-05 09:32N 36°36' W 012°16'1512.9
2015-Jul-05 08:22N 36°50' W 012°11'1512.9
2015-Jul-05 07:11N 37°05' W 012°06'4913.0
2015-Jul-05 03:26N 37°52' W 011°52'5512.6
2015-Jul-04 23:06N 38°45' W 011°35'46511.2
2015-Jul-03 05:32N 44°60' W 005°26'9713.2
2015-Jul-02 22:14N 45°36' W 003°19'2313.2
2015-Jul-02 20:31N 45°44' W 002°49'1413.7
2015-Jul-02 19:29N 45°49' W 002°30'1213.5
2015-Jul-02 18:33N 45°54' W 002°13'1313.4
2015-Jul-02 17:33N 45°60' W 001°56'1312.9
2015-Jul-02 16:33N 46°07' W 001°41'9 9.4
2015-Jul-02 15:33N 46°07' W 001°27'7 6.6
2015-Jul-02 14:33N 46°06' W 001°18'5 4.6
2015-Jul-02 13:33N 46°09' W 001°14'0 0.0
2015-Jul-02 12:33N 46°09' W 001°14'0 0.0
2015-Jul-02 11:33N 46°09' W 001°14'0 0.0
2015-Jul-02 10:33N 46°09' W 001°14'0 0.0
2015-Jul-02 09:33N 46°09' W 001°14'0 0.0
2015-Jul-02 08:33N 46°09' W 001°14'0 0.0
2015-Jul-02 07:33N 46°10' W 001°14'0 0.0
2015-Jul-02 06:33N 46°09' W 001°14'0 0.0
2015-Jul-02 05:33N 46°09' W 001°14'0 0.0
2015-Jul-02 04:33N 46°09' W 001°14'0 0.0
2015-Jul-02 03:33N 46°09' W 001°14'0 0.0
2015-Jul-02 02:33N 46°09' W 001°14'0 0.0
2015-Jul-02 01:33N 46°09' W 001°14'0 0.0
2015-Jul-02 00:33N 46°09' W 001°14'0 0.0
2015-Jul-01 23:33N 46°09' W 001°14'0 0.0
2015-Jul-01 22:33N 46°09' W 001°14'0 0.0
2015-Jul-01 21:33N 46°09' W 001°14'0 0.0
2015-Jul-01 20:33N 46°09' W 001°14'0 0.0
2015-Jul-01 19:33N 46°09' W 001°14'0 0.0
2015-Jul-01 18:33N 46°09' W 001°14'0 0.0
2015-Jul-01 17:33N 46°09' W 001°14'0 0.0
2015-Jul-01 16:33N 46°09' W 001°14'0 0.0
2015-Jul-01 15:33N 46°09' W 001°14'0 0.0
2015-Jul-01 14:33N 46°09' W 001°14'0 0.0
2015-Jul-01 13:33N 46°09' W 001°14'0 0.0
2015-Jul-01 12:33N 46°09' W 001°14'0 0.0
2015-Jul-01 11:33N 46°09' W 001°14'0 0.0
2015-Jul-01 10:33N 46°09' W 001°14'0 0.0
2015-Jul-01 09:33N 46°09' W 001°14'0 0.0
2015-Jul-01 08:33N 46°09' W 001°14'0 0.0
2015-Jul-01 07:33N 46°09' W 001°14'0 0.0
2015-Jul-01 06:33N 46°09' W 001°14'0 0.0
2015-Jul-01 05:33N 46°10' W 001°14'0 0.0
2015-Jul-01 04:33N 46°09' W 001°14'0 0.0
2015-Jul-01 03:33N 46°09' W 001°14'0 0.0
2015-Jul-01 02:33N 46°09' W 001°14'0 0.0
2015-Jul-01 01:33N 46°09' W 001°14'0 0.0
2015-Jul-01 00:33N 46°09' W 001°14'0 0.0
2015-Jun-30 23:31N 46°10' W 001°14'0 0.0
2015-Jun-30 22:31N 46°09' W 001°14'0 0.0
2015-Jun-30 21:28N 46°09' W 001°14'0 0.0
2015-Jun-30 20:31N 46°09' W 001°14'0 0.0
2015-Jun-30 19:31N 46°09' W 001°14'0 0.0
2015-Jun-30 18:28N 46°09' W 001°14'0 0.0
2015-Jun-30 17:28N 46°09' W 001°14'0 0.0
2015-Jun-30 16:28N 46°09' W 001°14'0 0.0
2015-Jun-30 15:28N 46°09' W 001°14'0 0.0
2015-Jun-30 14:31N 46°09' W 001°14'0 0.0
2015-Jun-30 13:31N 46°09' W 001°14'0 0.0
2015-Jun-30 12:28N 46°09' W 001°14'0 0.0
2015-Jun-30 11:31N 46°09' W 001°14'0 0.0
2015-Jun-30 10:28N 46°09' W 001°14'0 0.0
2015-Jun-30 09:31N 46°09' W 001°14'0 0.0
2015-Jun-30 08:28N 46°09' W 001°14'0 0.0
2015-Jun-30 07:28N 46°09' W 001°14'0 0.0
2015-Jun-30 06:31N 46°09' W 001°14'0 0.0
2015-Jun-30 05:28N 46°09' W 001°14'0 0.0
2015-Jun-30 04:31N 46°09' W 001°14'0 0.0
2015-Jun-30 03:31N 46°09' W 001°14'0 0.0
2015-Jun-30 02:28N 46°09' W 001°14'0 0.0
2015-Jun-30 01:31N 46°09' W 001°14'0 0.0
2015-Jun-30 00:28N 46°09' W 001°14'0 0.0
2015-Jun-29 23:31N 46°09' W 001°14'0 0.0
2015-Jun-29 22:31N 46°09' W 001°14'1 1.0
2015-Jun-29 21:33N 46°09' W 001°15'7 7.3
2015-Jun-29 20:33N 46°06' W 001°25'1010.0
2015-Jun-29 19:33N 46°08' W 001°39'1413.8
2015-Jun-29 18:33N 46°12' W 001°58'1413.9
2015-Jun-29 17:33N 46°18' W 002°16'1414.0
2015-Jun-29 16:33N 46°26' W 002°33'1414.0
2015-Jun-29 15:33N 46°34' W 002°49'1414.1
2015-Jun-29 14:33N 46°42' W 003°07'1413.9
2015-Jun-29 13:33N 46°50' W 003°24'1414.0
2015-Jun-29 12:34N 46°57' W 003°41'1414.0
2015-Jun-29 11:34N 47°05' W 003°58'1414.0
2015-Jun-29 10:33N 47°13' W 004°15'1413.8
2015-Jun-29 09:32N 47°21' W 004°32'1313.6
2015-Jun-29 08:34N 47°29' W 004°48'1413.8
2015-Jun-29 07:33N 47°36' W 005°05'1414.0
2015-Jun-29 06:32N 47°44' W 005°23'1313.8
2015-Jun-29 05:33N 47°55' W 005°34'1514.5
2015-Jun-29 04:33N 48°09' W 005°42'1414.6
2015-Jun-29 03:34N 48°22' W 005°52'1514.4
2015-Jun-29 02:33N 48°35' W 006°02'1312.6
2015-Jun-29 01:32N 48°46' W 005°53'1211.9
2015-Jun-29 00:32N 48°56' W 005°42'1312.4
2015-Jun-28 23:30N 49°02' W 005°26'1212.0
2015-Jun-28 22:28N 49°09' W 005°10'1212.4
2015-Jun-28 21:30N 49°15' W 004°54'1914.6
2015-Jun-28 20:11N 49°24' W 004°28'7713.3
2015-Jun-28 14:26N 50°01' W 002°44'2914.4
2015-Jun-28 12:24N 50°09' W 002°00'2915.9
2015-Jun-28 10:33N 50°17' W 001°16'3614.8
2015-Jun-28 08:06N 50°27' W 000°21'713.2
2015-Jun-28 07:33N 50°29' W 000°10'1312.7
2015-Jun-28 06:33N 50°32' E 000°09'1212.4
2015-Jun-28 05:33N 50°35' E 000°28'1312.6
2015-Jun-28 04:33N 50°40' E 000°46'1414.0
2015-Jun-28 03:33N 50°47' E 001°05'1514.8
2015-Jun-28 02:33N 50°58' E 001°21'1514.7
2015-Jun-28 01:34N 51°08' E 001°38'1413.6
2015-Jun-28 00:34N 51°19' E 001°52'1111.1
2015-Jun-27 23:33N 51°23' E 002°08'1212.5
2015-Jun-27 22:34N 51°22' E 002°28'1010.2
2015-Jun-27 21:34N 51°23' E 002°44'1211.5
2015-Jun-27 20:33N 51°24' E 003°02'1211.8
2015-Jun-27 19:34N 51°25' E 003°21'1110.7
2015-Jun-27 18:34N 51°26' E 003°38'9 8.9
2015-Jun-27 17:34N 51°20' E 003°49'2 1.7
2015-Jun-27 16:34N 51°19' E 003°50'5 5.3
2015-Jun-27 15:33N 51°13' E 003°48'6 5.8
2015-Jun-27 14:34N 51°08' E 003°46'1 1.2
2015-Jun-27 13:32N 51°07' E 003°45'0 0.0
2015-Jun-27 12:32N 51°07' E 003°45'0 0.0
2015-Jun-27 11:32N 51°07' E 003°45'0 0.0
2015-Jun-27 10:32N 51°07' E 003°45'0 0.0
2015-Jun-27 09:32N 51°07' E 003°45'0 0.0
2015-Jun-27 08:29N 51°07' E 003°45'0 0.0
2015-Jun-27 07:29N 51°07' E 003°45'0 0.0
2015-Jun-27 06:32N 51°07' E 003°45'0 0.0
2015-Jun-27 05:32N 51°07' E 003°45'  
Track history (hours):
 
Tides and Currents Weather Stations Pressure Air Temp Water Temp Dewpoint Dewpoint Depression Visibility Wind Speed Wind Dir Waves Ship Positions

Federal Sable

Last reported at 2015-Jul-07 05:20 UTC. Time now 2015-Aug-30 05:53 UTC.
Position N 27°37' W 015°16'.
Warning: this ship's position is 54 days out of date.

Length 190 m; draft 10.4 m.

Type: Cargo ship. MMSI: 538004380.

Date/timePositionNaut miles runAvg speedWind from/ knotsBaromVisibWave heightAir tempDewpointWater temp
2015-Jul-07 05:20N 27°37' W 015°16'1012.9
2015-Jul-07 04:33N 27°46' W 015°11'1313.0
2015-Jul-07 03:33N 27°58' W 015°05'1313.0
2015-Jul-07 02:33N 28°10' W 014°60'1313.1
2015-Jul-07 01:33N 28°22' W 014°55'1313.1
2015-Jul-07 00:32N 28°35' W 014°50'1313.1
2015-Jul-06 23:33N 28°48' W 014°46'1413.0
2015-Jul-06 22:28N 29°01' W 014°42'1313.3
2015-Jul-06 21:31N 29°13' W 014°38'1212.9
2015-Jul-06 20:33N 29°26' W 014°35'1312.8
2015-Jul-06 19:33N 29°38' W 014°32'6412.7
2015-Jul-06 14:33N 30°39' W 014°12'1212.4
2015-Jul-06 13:33N 30°51' W 014°08'1212.4
2015-Jul-06 12:33N 31°03' W 014°04'1312.4
2015-Jul-06 11:33N 31°15' W 013°60'1212.6
2015-Jul-06 10:33N 31°27' W 013°56'1312.6
2015-Jul-06 09:33N 31°39' W 013°52'1212.4
2015-Jul-06 08:33N 31°51' W 013°48'1312.6
2015-Jul-06 07:33N 32°03' W 013°44'1212.3
2015-Jul-06 06:33N 32°15' W 013°41'1212.5
2015-Jul-06 05:33N 32°28' W 013°38'1312.6
2015-Jul-06 04:33N 32°40' W 013°34'1312.7
2015-Jul-06 03:33N 32°52' W 013°30'1312.8
2015-Jul-06 02:33N 33°04' W 013°26'1312.7
2015-Jul-06 01:33N 33°17' W 013°22'1313.0
2015-Jul-06 00:33N 33°29' W 013°17'1313.2
2015-Jul-05 23:33N 33°42' W 013°13'1313.2
2015-Jul-05 22:33N 33°55' W 013°09'1312.8
2015-Jul-05 21:33N 34°07' W 013°05'1312.7
2015-Jul-05 20:33N 34°19' W 013°00'1312.6
2015-Jul-05 19:33N 34°31' W 012°57'1312.6
2015-Jul-05 18:33N 34°43' W 012°53'1312.6
2015-Jul-05 17:33N 34°55' W 012°48'1512.9
2015-Jul-05 16:23N 35°10' W 012°44'2312.8
2015-Jul-05 14:33N 35°33' W 012°37'1512.7
2015-Jul-05 13:24N 35°47' W 012°32'1112.6
2015-Jul-05 12:31N 35°58' W 012°28'1313.0
2015-Jul-05 11:31N 36°10' W 012°24'1313.2
2015-Jul-05 10:33N 36°22' W 012°20'1413.2
2015-Jul-05 09:32N 36°36' W 012°16'1512.9
2015-Jul-05 08:22N 36°50' W 012°11'1512.9
2015-Jul-05 07:11N 37°05' W 012°06'4913.0
2015-Jul-05 03:26N 37°52' W 011°52'5512.6
2015-Jul-04 23:06N 38°45' W 011°35'46511.2
2015-Jul-03 05:32N 44°60' W 005°26'9713.2
2015-Jul-02 22:14N 45°36' W 003°19'2313.2
2015-Jul-02 20:31N 45°44' W 002°49'1413.7
2015-Jul-02 19:29N 45°49' W 002°30'1213.5
2015-Jul-02 18:33N 45°54' W 002°13'1313.4
2015-Jul-02 17:33N 45°60' W 001°56'1312.9
2015-Jul-02 16:33N 46°07' W 001°41'9 9.4
2015-Jul-02 15:33N 46°07' W 001°27'7 6.6
2015-Jul-02 14:33N 46°06' W 001°18'5 4.6
2015-Jul-02 13:33N 46°09' W 001°14'0 0.0
2015-Jul-02 12:33N 46°09' W 001°14'0 0.0
2015-Jul-02 11:33N 46°09' W 001°14'0 0.0
2015-Jul-02 10:33N 46°09' W 001°14'0 0.0
2015-Jul-02 09:33N 46°09' W 001°14'0 0.0
2015-Jul-02 08:33N 46°09' W 001°14'0 0.0
2015-Jul-02 07:33N 46°10' W 001°14'0 0.0
2015-Jul-02 06:33N 46°09' W 001°14'0 0.0
2015-Jul-02 05:33N 46°09' W 001°14'0 0.0
2015-Jul-02 04:33N 46°09' W 001°14'0 0.0
2015-Jul-02 03:33N 46°09' W 001°14'0 0.0
2015-Jul-02 02:33N 46°09' W 001°14'0 0.0
2015-Jul-02 01:33N 46°09' W 001°14'0 0.0
2015-Jul-02 00:33N 46°09' W 001°14'0 0.0
2015-Jul-01 23:33N 46°09' W 001°14'0 0.0
2015-Jul-01 22:33N 46°09' W 001°14'0 0.0
2015-Jul-01 21:33N 46°09' W 001°14'0 0.0
2015-Jul-01 20:33N 46°09' W 001°14'0 0.0
2015-Jul-01 19:33N 46°09' W 001°14'0 0.0
2015-Jul-01 18:33N 46°09' W 001°14'0 0.0
2015-Jul-01 17:33N 46°09' W 001°14'0 0.0
2015-Jul-01 16:33N 46°09' W 001°14'0 0.0
2015-Jul-01 15:33N 46°09' W 001°14'0 0.0
2015-Jul-01 14:33N 46°09' W 001°14'0 0.0
2015-Jul-01 13:33N 46°09' W 001°14'0 0.0
2015-Jul-01 12:33N 46°09' W 001°14'0 0.0
2015-Jul-01 11:33N 46°09' W 001°14'0 0.0
2015-Jul-01 10:33N 46°09' W 001°14'0 0.0
2015-Jul-01 09:33N 46°09' W 001°14'0 0.0
2015-Jul-01 08:33N 46°09' W 001°14'0 0.0
2015-Jul-01 07:33N 46°09' W 001°14'0 0.0
2015-Jul-01 06:33N 46°09' W 001°14'0 0.0
2015-Jul-01 05:33N 46°10' W 001°14'0 0.0
2015-Jul-01 04:33N 46°09' W 001°14'0 0.0
2015-Jul-01 03:33N 46°09' W 001°14'0 0.0
2015-Jul-01 02:33N 46°09' W 001°14'0 0.0
2015-Jul-01 01:33N 46°09' W 001°14'0 0.0
2015-Jul-01 00:33N 46°09' W 001°14'0 0.0
2015-Jun-30 23:31N 46°10' W 001°14'0 0.0
2015-Jun-30 22:31N 46°09' W 001°14'0 0.0
2015-Jun-30 21:28N 46°09' W 001°14'0 0.0
2015-Jun-30 20:31N 46°09' W 001°14'0 0.0
2015-Jun-30 19:31N 46°09' W 001°14'0 0.0
2015-Jun-30 18:28N 46°09' W 001°14'0 0.0
2015-Jun-30 17:28N 46°09' W 001°14'0 0.0
2015-Jun-30 16:28N 46°09' W 001°14'0 0.0
2015-Jun-30 15:28N 46°09' W 001°14'0 0.0
2015-Jun-30 14:31N 46°09' W 001°14'0 0.0
2015-Jun-30 13:31N 46°09' W 001°14'0 0.0
2015-Jun-30 12:28N 46°09' W 001°14'0 0.0
2015-Jun-30 11:31N 46°09' W 001°14'0 0.0
2015-Jun-30 10:28N 46°09' W 001°14'0 0.0
2015-Jun-30 09:31N 46°09' W 001°14'0 0.0
2015-Jun-30 08:28N 46°09' W 001°14'0 0.0
2015-Jun-30 07:28N 46°09' W 001°14'0 0.0
2015-Jun-30 06:31N 46°09' W 001°14'0 0.0
2015-Jun-30 05:28N 46°09' W 001°14'0 0.0
2015-Jun-30 04:31N 46°09' W 001°14'0 0.0
2015-Jun-30 03:31N 46°09' W 001°14'0 0.0
2015-Jun-30 02:28N 46°09' W 001°14'0 0.0
2015-Jun-30 01:31N 46°09' W 001°14'0 0.0
2015-Jun-30 00:28N 46°09' W 001°14'0 0.0
2015-Jun-29 23:31N 46°09' W 001°14'0 0.0
2015-Jun-29 22:31N 46°09' W 001°14'1 1.0
2015-Jun-29 21:33N 46°09' W 001°15'7 7.3
2015-Jun-29 20:33N 46°06' W 001°25'1010.0
2015-Jun-29 19:33N 46°08' W 001°39'1413.8
2015-Jun-29 18:33N 46°12' W 001°58'1413.9
2015-Jun-29 17:33N 46°18' W 002°16'1414.0
2015-Jun-29 16:33N 46°26' W 002°33'1414.0
2015-Jun-29 15:33N 46°34' W 002°49'1414.1
2015-Jun-29 14:33N 46°42' W 003°07'1413.9
2015-Jun-29 13:33N 46°50' W 003°24'1414.0
2015-Jun-29 12:34N 46°57' W 003°41'1414.0
2015-Jun-29 11:34N 47°05' W 003°58'1414.0
2015-Jun-29 10:33N 47°13' W 004°15'1413.8
2015-Jun-29 09:32N 47°21' W 004°32'1313.6
2015-Jun-29 08:34N 47°29' W 004°48'1413.8
2015-Jun-29 07:33N 47°36' W 005°05'1414.0
2015-Jun-29 06:32N 47°44' W 005°23'1313.8
2015-Jun-29 05:33N 47°55' W 005°34'1514.5
2015-Jun-29 04:33N 48°09' W 005°42'1414.6
2015-Jun-29 03:34N 48°22' W 005°52'1514.4
2015-Jun-29 02:33N 48°35' W 006°02'1312.6
2015-Jun-29 01:32N 48°46' W 005°53'1211.9
2015-Jun-29 00:32N 48°56' W 005°42'1312.4
2015-Jun-28 23:30N 49°02' W 005°26'1212.0
2015-Jun-28 22:28N 49°09' W 005°10'1212.4
2015-Jun-28 21:30N 49°15' W 004°54'1914.6
2015-Jun-28 20:11N 49°24' W 004°28'7713.3
2015-Jun-28 14:26N 50°01' W 002°44'2914.4
2015-Jun-28 12:24N 50°09' W 002°00'2915.9
2015-Jun-28 10:33N 50°17' W 001°16'3614.8
2015-Jun-28 08:06N 50°27' W 000°21'713.2
2015-Jun-28 07:33N 50°29' W 000°10'1312.7
2015-Jun-28 06:33N 50°32' E 000°09'1212.4
2015-Jun-28 05:33N 50°35' E 000°28'1312.6
2015-Jun-28 04:33N 50°40' E 000°46'1414.0
2015-Jun-28 03:33N 50°47' E 001°05'1514.8
2015-Jun-28 02:33N 50°58' E 001°21'1514.7
2015-Jun-28 01:34N 51°08' E 001°38'1413.6
2015-Jun-28 00:34N 51°19' E 001°52'1111.1
2015-Jun-27 23:33N 51°23' E 002°08'1212.5
2015-Jun-27 22:34N 51°22' E 002°28'1010.2
2015-Jun-27 21:34N 51°23' E 002°44'1211.5
2015-Jun-27 20:33N 51°24' E 003°02'1211.8
2015-Jun-27 19:34N 51°25' E 003°21'1110.7
2015-Jun-27 18:34N 51°26' E 003°38'9 8.9
2015-Jun-27 17:34N 51°20' E 003°49'2 1.7
2015-Jun-27 16:34N 51°19' E 003°50'5 5.3
2015-Jun-27 15:33N 51°13' E 003°48'6 5.8
2015-Jun-27 14:34N 51°08' E 003°46'1 1.2
2015-Jun-27 13:32N 51°07' E 003°45'0 0.0
2015-Jun-27 12:32N 51°07' E 003°45'0 0.0
2015-Jun-27 11:32N 51°07' E 003°45'0 0.0
2015-Jun-27 10:32N 51°07' E 003°45'0 0.0
2015-Jun-27 09:32N 51°07' E 003°45'0 0.0
2015-Jun-27 08:29N 51°07' E 003°45'0 0.0
2015-Jun-27 07:29N 51°07' E 003°45'0 0.0
2015-Jun-27 06:32N 51°07' E 003°45'0 0.0
2015-Jun-27 05:32N 51°07' E 003°45'  

Dump ship's entire track history